Ever Ulysses — 9V7962 — position and weather

sailwx.info

Track history (hours):
 
Tides and Currents Weather Stations Pressure Air Temp Water Temp Dewpoint Dewpoint Depression Visibility Wind Speed Wind Dir Waves Ship Positions

Ever Ulysses

Last reported at 2016-Jul-26 21:28 UTC. Time now 2016-Jul-26 21:45 UTC.
Position N 24°22' E 118°27'.

Length 285 m; draft 9.3 m.

Type: Ship (hazmat cat D). MMSI: 564442000.

Date/timePositionNaut miles runAvg speedWind from/ knotsBaromVisibWave heightAir tempDewpointWater temp
2016-Jul-26 21:28N 24°22' E 118°27'0 0.1
2016-Jul-26 19:22N 24°22' E 118°27'0 0.0
2016-Jul-26 18:22N 24°22' E 118°27'0 0.0
2016-Jul-26 17:28N 24°22' E 118°27'0 0.0
2016-Jul-26 16:28N 24°22' E 118°27'0 0.5
2016-Jul-26 15:33N 24°21' E 118°27'11 9.9
2016-Jul-26 14:24N 24°23' E 118°40'1012.0
2016-Jul-26 13:33N 24°25' E 118°51'1312.2
2016-Jul-26 12:29N 24°29' E 119°05'1112.0
2016-Jul-26 11:33N 24°33' E 119°16'1212.1
2016-Jul-26 10:33N 24°37' E 119°28'1212.1
2016-Jul-26 09:33N 24°42' E 119°41'1312.0
2016-Jul-26 08:30N 24°46' E 119°54'1212.7
2016-Jul-26 07:33N 24°50' E 120°06'1313.3
2016-Jul-26 06:33N 24°55' E 120°20'1413.8
2016-Jul-26 05:33N 25°01' E 120°34'  
Track history (hours):
 
Tides and Currents Weather Stations Pressure Air Temp Water Temp Dewpoint Dewpoint Depression Visibility Wind Speed Wind Dir Waves Ship Positions

Ever Ulysses

Last reported at 2016-Jul-26 21:28 UTC. Time now 2016-Jul-26 21:45 UTC.
Position N 24°22' E 118°27'.

Length 285 m; draft 9.3 m.

Type: Ship (hazmat cat D). MMSI: 564442000.

Date/timePositionNaut miles runAvg speedWind from/ knotsBaromVisibWave heightAir tempDewpointWater temp
2016-Jul-26 21:28N 24°22' E 118°27'0 0.1
2016-Jul-26 19:22N 24°22' E 118°27'0 0.0
2016-Jul-26 18:22N 24°22' E 118°27'0 0.0
2016-Jul-26 17:28N 24°22' E 118°27'0 0.0
2016-Jul-26 16:28N 24°22' E 118°27'0 0.5
2016-Jul-26 15:33N 24°21' E 118°27'11 9.9
2016-Jul-26 14:24N 24°23' E 118°40'1012.0
2016-Jul-26 13:33N 24°25' E 118°51'1312.2
2016-Jul-26 12:29N 24°29' E 119°05'1112.0
2016-Jul-26 11:33N 24°33' E 119°16'1212.1
2016-Jul-26 10:33N 24°37' E 119°28'1212.1
2016-Jul-26 09:33N 24°42' E 119°41'1312.0
2016-Jul-26 08:30N 24°46' E 119°54'1212.7
2016-Jul-26 07:33N 24°50' E 120°06'1313.3
2016-Jul-26 06:33N 24°55' E 120°20'1413.8
2016-Jul-26 05:33N 25°01' E 120°34'  

Dump ship's entire track history